createdAt,value
2018-04-23T00:04:00.546Z,15.80
2018-04-23T00:08:33.729Z,15.70
2018-04-23T00:13:07.686Z,15.60
2018-04-23T00:17:40.882Z,15.50
2018-04-23T00:22:14.070Z,15.60
2018-04-23T00:26:47.435Z,15.40
2018-04-23T00:31:20.596Z,15.30
2018-04-23T00:35:53.783Z,15.50
2018-04-23T00:40:27.735Z,15.60
2018-04-23T00:45:00.926Z,15.60
2018-04-23T00:49:34.114Z,15.60
2018-04-23T00:54:08.073Z,15.60
2018-04-23T00:58:41.269Z,15.50
2018-04-23T01:03:14.430Z,15.50
2018-04-23T01:07:47.618Z,15.40
2018-04-23T01:12:20.802Z,15.30
2018-04-23T01:16:53.986Z,15.50
2018-04-23T01:21:27.171Z,15.60
2018-04-23T01:26:01.121Z,15.50
2018-04-23T01:30:34.339Z,15.40
2018-04-23T01:35:07.525Z,15.50
2018-04-23T01:39:40.715Z,15.60
2018-04-23T01:44:14.689Z,15.60
2018-04-23T01:48:47.878Z,15.50
2018-04-23T01:53:21.067Z,15.40
2018-04-23T01:57:54.259Z,15.50
2018-04-23T02:02:28.209Z,15.50
2018-04-23T02:07:01.394Z,15.40
2018-04-23T02:11:35.354Z,15.50
2018-04-23T02:16:08.610Z,15.40
2018-04-23T02:20:41.771Z,15.40
2018-04-23T02:25:14.953Z,15.40
2018-04-23T02:29:48.138Z,15.30
2018-04-23T02:34:22.091Z,15.20
2018-04-23T02:38:55.302Z,15.20
2018-04-23T02:43:28.470Z,15.30
2018-04-23T02:48:02.513Z,15.10
2018-04-23T02:52:36.882Z,15.00
2018-04-23T02:57:11.033Z,15.00
2018-04-23T03:01:44.234Z,15.00
2018-04-23T03:06:17.397Z,15.00
2018-04-23T03:10:50.813Z,15.00
2018-04-23T03:15:23.977Z,14.90
2018-04-23T03:19:57.169Z,15.00
2018-04-23T03:24:30.410Z,15.00
2018-04-23T03:29:04.375Z,15.00
2018-04-23T03:33:37.539Z,15.00
2018-04-23T03:38:11.495Z,15.00
2018-04-23T03:42:44.658Z,14.90
2018-04-23T03:47:17.855Z,15.00
2018-04-23T03:51:51.052Z,15.00
2018-04-23T03:56:24.221Z,15.00
2018-04-23T04:00:57.699Z,15.00
2018-04-23T04:05:30.966Z,15.10
2018-04-23T04:10:04.162Z,15.30
2018-04-23T04:14:49.262Z,15.40
2018-04-23T04:19:22.434Z,15.30
2018-04-23T04:23:57.298Z,15.00
2018-04-23T04:28:30.610Z,14.90
2018-04-23T04:33:03.803Z,15.00
2018-04-23T04:37:37.022Z,15.10
2018-04-23T04:42:10.211Z,15.10
2018-04-23T04:46:43.380Z,15.20
2018-04-23T04:51:17.347Z,15.30
2018-04-23T04:55:50.550Z,15.20
2018-04-23T05:00:23.740Z,15.30
2018-04-23T05:04:56.940Z,15.30
2018-04-23T05:09:30.893Z,15.20
2018-04-23T05:14:04.065Z,15.20
2018-04-23T05:18:38.023Z,15.20
2018-04-23T05:23:11.261Z,15.10
2018-04-23T05:27:44.577Z,15.20
2018-04-23T05:32:18.616Z,15.30
2018-04-23T05:36:52.574Z,15.40
2018-04-23T05:41:25.784Z,15.40
2018-04-23T05:45:58.979Z,15.50
2018-04-23T05:50:32.186Z,15.50
2018-04-23T05:55:05.421Z,15.70
2018-04-23T05:59:38.582Z,15.70
2018-04-23T06:04:12.543Z,15.90
2018-04-23T06:08:45.798Z,15.90
2018-04-23T06:13:18.997Z,16.00
2018-04-23T06:17:52.185Z,16.00
2018-04-23T06:22:25.371Z,16.00
2018-04-23T06:26:58.764Z,16.00
2018-04-23T06:31:31.921Z,16.00
2018-04-23T06:36:05.117Z,16.10
2018-04-23T06:40:38.307Z,16.10
2018-04-23T06:45:11.498Z,16.20
2018-04-23T06:49:44.690Z,16.20
2018-04-23T06:54:17.903Z,16.10
2018-04-23T06:58:51.090Z,16.50
2018-04-23T07:03:25.041Z,17.40
2018-04-23T07:07:58.238Z,17.30
2018-04-23T07:12:31.517Z,17.90
2018-04-23T07:17:06.190Z,18.20
2018-04-23T07:21:39.378Z,18.20
2018-04-23T07:26:13.333Z,18.80
2018-04-23T07:30:46.517Z,18.80
2018-04-23T07:35:20.470Z,19.30
2018-04-23T07:39:53.655Z,19.20
2018-04-23T07:44:26.848Z,19.30
2018-04-23T07:49:00.803Z,20.30
2018-04-23T07:53:33.993Z,20.20
2018-04-23T07:58:07.316Z,21.20
2018-04-23T08:02:40.507Z,21.80
2018-04-23T08:07:13.868Z,22.30
2018-04-23T08:11:47.058Z,23.60
2018-04-23T08:16:20.258Z,23.10
2018-04-23T08:20:53.574Z,22.20
2018-04-23T08:25:26.773Z,22.20
2018-04-23T08:29:59.987Z,22.00
2018-04-23T08:34:33.169Z,21.70
2018-04-23T08:39:06.378Z,21.30
2018-04-23T08:43:39.586Z,22.60
2018-04-23T08:48:12.807Z,23.80
2018-04-23T08:52:45.961Z,25.40
2018-04-23T08:57:19.925Z,25.40
2018-04-23T09:01:53.197Z,25.40
2018-04-23T09:06:27.155Z,24.50
2018-04-23T09:11:00.314Z,24.40
2018-04-23T09:15:33.551Z,23.90
2018-04-23T09:20:06.739Z,23.10
2018-04-23T09:24:40.693Z,22.70
2018-04-23T09:29:13.889Z,22.70
2018-04-23T09:33:47.097Z,22.50
2018-04-23T09:38:20.263Z,22.50
2018-04-23T09:42:54.213Z,22.20
2018-04-23T09:47:28.169Z,22.20
2018-04-23T09:52:02.897Z,22.20
2018-04-23T09:56:36.185Z,22.40
2018-04-23T10:01:15.949Z,23.10
2018-04-23T10:05:49.875Z,24.00
2018-04-23T10:10:23.838Z,25.10
2018-04-23T10:14:57.005Z,25.00
2018-04-23T10:19:30.957Z,26.10
2018-04-23T10:24:04.150Z,26.00
2018-04-23T10:28:37.404Z,27.70
2018-04-23T10:33:10.581Z,29.10
2018-04-23T10:37:43.773Z,29.00
2018-04-23T10:42:16.972Z,29.40
2018-04-23T10:46:50.170Z,29.50
2018-04-23T10:51:24.097Z,27.70
2018-04-23T10:55:57.407Z,27.60
2018-04-23T11:00:30.601Z,27.60
2018-04-23T11:05:04.560Z,29.30
2018-04-23T11:09:37.763Z,29.30
2018-04-23T11:14:11.121Z,29.80
2018-04-23T11:18:44.285Z,28.90
2018-04-23T11:23:17.470Z,28.10
2018-04-23T11:27:50.665Z,27.90
2018-04-23T11:32:24.675Z,26.40
2018-04-23T11:36:57.831Z,26.30
2018-04-23T11:41:31.001Z,25.80
2018-04-23T11:46:04.962Z,25.30
2018-04-23T11:50:38.452Z,25.30
2018-04-23T11:55:11.738Z,25.10
2018-04-23T11:59:45.660Z,24.90
2018-04-23T12:04:19.997Z,25.60
2018-04-23T12:08:53.946Z,26.20
2018-04-23T12:13:27.182Z,26.10
2018-04-23T12:18:00.342Z,25.20
2018-04-23T12:22:34.359Z,24.10
2018-04-23T12:27:08.330Z,24.00
2018-04-23T12:31:41.493Z,23.90
2018-04-23T12:36:15.453Z,23.70
2018-04-23T12:40:48.617Z,23.60
2018-04-23T12:45:22.574Z,23.80
2018-04-23T12:49:55.763Z,23.70
2018-04-23T12:54:29.715Z,23.90
2018-04-23T12:59:02.907Z,23.80
2018-04-23T13:03:36.093Z,24.10
2018-04-23T13:08:10.041Z,24.10
2018-04-23T13:12:43.217Z,24.10
2018-04-23T13:17:17.166Z,24.20
2018-04-23T13:21:50.365Z,24.10
2018-04-23T13:26:23.526Z,24.40
2018-04-23T13:30:56.893Z,25.00
2018-04-23T13:35:30.066Z,24.60
2018-04-23T13:40:04.349Z,23.70
2018-04-23T13:44:37.678Z,23.60
2018-04-23T13:49:10.867Z,23.50
2018-04-23T13:53:44.059Z,23.60
2018-04-23T13:58:17.374Z,23.80
2018-04-23T14:02:50.534Z,23.70
2018-04-23T14:07:23.749Z,23.70
2018-04-23T14:11:57.699Z,23.40
2018-04-23T14:16:30.884Z,23.30
2018-04-23T14:21:04.849Z,23.80
2018-04-23T14:25:38.015Z,23.70
2018-04-23T14:30:12.306Z,24.70
2018-04-23T14:34:45.467Z,24.60
2018-04-23T14:39:18.654Z,24.70
2018-04-23T14:43:52.913Z,24.50
2018-04-23T14:48:26.139Z,24.50
2018-04-23T14:52:59.342Z,24.20
2018-04-23T14:57:32.509Z,23.90
2018-04-23T15:02:06.462Z,23.60
2018-04-23T15:06:39.650Z,23.50
2018-04-23T15:11:12.933Z,23.70
2018-04-23T15:15:46.895Z,23.40
2018-04-23T15:20:20.086Z,23.40
2018-04-23T15:24:53.361Z,23.30
2018-04-23T15:29:26.555Z,23.10
2018-04-23T15:33:59.715Z,22.90
2018-04-23T15:38:33.221Z,23.00
2018-04-23T15:43:06.406Z,22.70
2018-04-23T15:47:40.430Z,22.20
2018-04-23T15:52:14.389Z,21.90
2018-04-23T15:56:47.559Z,21.90
2018-04-23T16:01:21.514Z,21.90
2018-04-23T16:05:54.704Z,21.90
2018-04-23T16:10:28.711Z,21.70
2018-04-23T16:15:01.927Z,21.60
2018-04-23T16:19:35.885Z,21.40
2018-04-23T16:24:09.075Z,21.30
2018-04-23T16:28:42.278Z,21.40
2018-04-23T16:33:15.482Z,21.20
2018-04-23T16:37:49.408Z,20.90
2018-04-23T16:42:22.635Z,20.80
2018-04-23T16:46:55.822Z,20.80
2018-04-23T16:51:29.797Z,20.60
2018-04-23T16:56:02.961Z,20.50
2018-04-23T17:00:36.157Z,20.40
2018-04-23T17:05:10.166Z,20.30
2018-04-23T17:09:43.386Z,20.30
2018-04-23T17:14:17.333Z,20.00
2018-04-23T17:18:50.494Z,19.90
2018-04-23T17:23:25.194Z,19.80
2018-04-23T17:27:58.390Z,19.80
2018-04-23T17:32:31.578Z,19.80
2018-04-23T17:37:04.910Z,19.30
2018-04-23T17:41:38.091Z,19.10
2018-04-23T17:46:12.200Z,19.00
2018-04-23T17:50:45.368Z,19.00
2018-04-23T17:55:18.629Z,18.80
2018-04-23T17:59:51.926Z,18.70
2018-04-23T18:04:25.906Z,18.40
2018-04-23T18:08:59.079Z,18.40
2018-04-23T18:13:32.272Z,18.30
2018-04-23T18:18:06.259Z,18.00
2018-04-23T18:22:39.418Z,17.90
2018-04-23T18:27:12.603Z,17.80
2018-04-23T18:31:46.573Z,17.70
2018-04-23T18:36:19.759Z,17.60
2018-04-23T18:40:52.941Z,17.60
2018-04-23T18:45:26.977Z,17.30
2018-04-23T18:50:01.127Z,17.20
2018-04-23T18:54:34.573Z,17.20
2018-04-23T18:59:07.761Z,17.10
2018-04-23T19:03:41.122Z,17.00
2018-04-23T19:08:14.333Z,16.90
2018-04-23T19:12:47.585Z,16.70
2018-04-23T19:17:20.751Z,16.20
2018-04-23T19:21:54.747Z,15.60
2018-04-23T19:26:27.929Z,15.50
2018-04-23T19:31:01.130Z,15.30
2018-04-23T19:35:34.290Z,15.10
2018-04-23T19:40:08.248Z,14.80
2018-04-23T19:44:41.435Z,14.70
2018-04-23T19:49:14.622Z,14.70
2018-04-23T19:53:48.584Z,14.70
2018-04-23T19:58:21.743Z,14.60
2018-04-23T20:02:54.931Z,14.50
2018-04-23T20:07:29.061Z,14.10
2018-04-23T20:12:03.058Z,14.00
2018-04-23T20:16:36.235Z,13.90
2018-04-23T20:21:09.455Z,13.90
2018-04-23T20:25:42.642Z,13.90
2018-04-23T20:30:16.677Z,13.80
2018-04-23T20:34:49.862Z,13.70
2018-04-23T20:39:24.143Z,13.50
2018-04-23T20:43:57.483Z,13.50
2018-04-23T20:48:30.642Z,13.40
2018-04-23T20:53:03.990Z,13.30
2018-04-23T20:57:38.325Z,13.30
2018-04-23T21:02:11.521Z,13.20
2018-04-23T21:06:44.678Z,13.20
2018-04-23T21:11:18.635Z,13.10
2018-04-23T21:15:52.333Z,13.00
2018-04-23T21:20:25.649Z,13.10
2018-04-23T21:24:58.837Z,13.10
2018-04-23T21:29:32.789Z,12.70
2018-04-23T21:34:05.987Z,12.60
2018-04-23T21:38:39.174Z,12.60
2018-04-23T21:43:13.118Z,12.40
2018-04-23T21:47:46.301Z,12.40
2018-04-23T21:52:20.253Z,12.00
2018-04-23T21:56:53.443Z,11.90
2018-04-23T22:01:26.652Z,12.00
2018-04-23T22:05:59.854Z,12.10
2018-04-23T22:10:33.017Z,12.10
2018-04-23T22:15:06.198Z,12.10
2018-04-23T22:19:39.382Z,12.00
2018-04-23T22:24:12.534Z,12.00
2018-04-23T22:28:45.718Z,11.80
2018-04-23T22:33:18.904Z,11.70
2018-04-23T22:37:52.178Z,11.70
2018-04-23T22:42:26.106Z,11.50
2018-04-23T22:46:59.325Z,11.40
2018-04-23T22:51:33.270Z,11.40
2018-04-23T22:56:06.507Z,11.40
2018-04-23T23:00:39.698Z,11.40
2018-04-23T23:05:12.878Z,11.40
2018-04-23T23:09:46.073Z,11.30
2018-04-23T23:14:20.002Z,11.10
2018-04-23T23:18:53.370Z,11.10
2018-04-23T23:23:26.551Z,11.10
2018-04-23T23:27:59.743Z,11.10
2018-04-23T23:32:33.012Z,11.00
2018-04-23T23:37:06.955Z,10.80
2018-04-23T23:41:40.901Z,10.70
2018-04-23T23:46:14.091Z,10.70
2018-04-23T23:50:47.304Z,10.70
2018-04-23T23:55:20.490Z,10.50
2018-04-23T23:59:54.437Z,10.40
